createdAt,value
2022-12-05T00:01:49.755Z,3.60
2022-12-05T00:04:17.602Z,3.90
2022-12-05T00:06:45.476Z,3.53
2022-12-05T00:09:14.312Z,3.50
2022-12-05T00:11:44.555Z,3.73
2022-12-05T00:14:14.097Z,3.57
2022-12-05T00:16:43.615Z,3.30
2022-12-05T00:19:13.862Z,3.57
2022-12-05T00:21:41.745Z,3.53
2022-12-05T00:24:12.668Z,3.60
2022-12-05T00:26:40.396Z,3.73
2022-12-05T00:29:08.081Z,3.67
2022-12-05T00:31:37.263Z,4.00
2022-12-05T00:34:05.031Z,3.67
2022-12-05T00:36:35.283Z,3.30
2022-12-05T00:39:06.446Z,3.87
2022-12-05T00:41:34.185Z,3.87
2022-12-05T00:44:03.078Z,3.67
2022-12-05T00:46:32.147Z,3.90
2022-12-05T00:49:02.128Z,4.00
2022-12-05T00:51:31.670Z,3.77
2022-12-05T00:54:00.612Z,3.83
2022-12-05T00:56:29.570Z,3.37
2022-12-05T00:58:58.662Z,3.33
2022-12-05T01:01:28.518Z,4.10
2022-12-05T01:03:57.514Z,3.50
2022-12-05T01:06:28.097Z,3.40
2022-12-05T01:08:56.805Z,3.37
2022-12-05T01:11:26.642Z,3.60
2022-12-05T01:13:54.880Z,3.23
2022-12-05T01:16:25.607Z,3.03
2022-12-05T01:18:53.630Z,3.17
2022-12-05T01:21:22.094Z,3.00
2022-12-05T01:23:51.262Z,3.00
2022-12-05T01:26:21.531Z,3.10
2022-12-05T01:28:49.568Z,2.70
2022-12-05T01:31:20.367Z,2.40
2022-12-05T01:33:48.267Z,3.07
2022-12-05T01:36:16.255Z,2.87
2022-12-05T01:38:44.810Z,3.00
2022-12-05T01:41:15.907Z,3.07
2022-12-05T01:43:55.639Z,2.63
2022-12-05T01:46:23.682Z,2.70
2022-12-05T01:48:52.324Z,2.43
2022-12-05T01:51:20.471Z,2.63
2022-12-05T01:53:48.291Z,2.70
2022-12-05T01:56:17.795Z,2.70
2022-12-05T01:58:45.936Z,2.70
2022-12-05T02:01:14.589Z,2.87
2022-12-05T02:03:43.067Z,2.70
2022-12-05T02:06:10.863Z,2.40
2022-12-05T02:08:38.790Z,3.00
2022-12-05T02:11:08.457Z,2.60
2022-12-05T02:14:01.334Z,2.40
2022-12-05T02:16:41.297Z,2.27
2022-12-05T02:19:27.293Z,2.50
2022-12-05T02:22:06.698Z,2.50
2022-12-05T02:24:49.796Z,2.67
2022-12-05T02:27:45.661Z,2.50
2022-12-05T02:30:16.867Z,2.33
2022-12-05T02:33:04.538Z,2.50
2022-12-05T02:35:40.444Z,2.63
2022-12-05T02:38:16.720Z,2.37
2022-12-05T02:40:50.322Z,2.40
2022-12-05T02:43:20.237Z,2.37
2022-12-05T02:45:51.040Z,2.30
2022-12-05T02:48:19.367Z,2.50
2022-12-05T02:50:49.140Z,2.50
2022-12-05T02:53:18.404Z,2.00
2022-12-05T02:55:46.645Z,2.50
2022-12-05T02:58:17.387Z,1.90
2022-12-05T03:00:46.611Z,2.10
2022-12-05T03:03:18.360Z,2.30
2022-12-05T03:05:53.898Z,2.03
2022-12-05T03:08:24.657Z,2.00
2022-12-05T03:10:53.196Z,1.90
2022-12-05T03:13:23.137Z,2.10
2022-12-05T03:15:55.159Z,1.93
2022-12-05T03:18:26.420Z,2.00
2022-12-05T03:20:57.479Z,2.13
2022-12-05T03:23:29.875Z,1.70
2022-12-05T03:26:05.021Z,2.10
2022-12-05T03:28:36.155Z,1.70
2022-12-05T03:31:07.546Z,1.80
2022-12-05T03:33:39.225Z,2.13
2022-12-05T03:36:12.572Z,1.97
2022-12-05T03:38:46.212Z,1.80
2022-12-05T03:41:18.755Z,2.07
2022-12-05T03:43:50.371Z,2.20
2022-12-05T03:49:12.665Z,1.90
2022-12-05T03:51:44.021Z,1.90
2022-12-05T03:54:15.706Z,2.03
2022-12-05T03:56:45.674Z,1.67
2022-12-05T03:59:17.697Z,1.83
2022-12-05T04:01:48.200Z,1.70
2022-12-05T04:04:20.181Z,1.83
2022-12-05T04:06:50.671Z,1.93
2022-12-05T04:09:21.238Z,1.80
2022-12-05T04:11:51.778Z,1.60
2022-12-05T04:14:22.610Z,1.80
2022-12-05T04:17:05.887Z,1.57
2022-12-05T04:19:57.873Z,1.43
2022-12-05T04:22:26.314Z,1.60
2022-12-05T04:25:12.611Z,1.43
2022-12-05T04:27:43.806Z,1.30
2022-12-05T04:30:14.253Z,1.80
2022-12-05T04:32:50.382Z,1.60
2022-12-05T04:35:23.726Z,1.60
2022-12-05T04:37:55.053Z,1.80
2022-12-05T04:40:25.425Z,1.83
2022-12-05T04:42:54.819Z,1.70
2022-12-05T04:45:23.221Z,1.60
2022-12-05T04:47:54.583Z,1.50
2022-12-05T04:50:24.404Z,1.70
2022-12-05T04:52:55.095Z,1.80
2022-12-05T04:55:26.132Z,1.80
2022-12-05T04:57:59.109Z,1.80
2022-12-05T05:00:27.472Z,2.00
2022-12-05T05:02:59.747Z,2.00
2022-12-05T05:05:29.356Z,2.47
2022-12-05T05:07:57.191Z,2.97
2022-12-05T05:10:31.811Z,3.10
2022-12-05T05:12:59.479Z,3.20
2022-12-05T05:15:27.185Z,3.10
2022-12-05T05:17:54.857Z,3.07
2022-12-05T05:20:25.141Z,3.13
2022-12-05T05:22:54.928Z,3.37
2022-12-05T05:25:23.192Z,3.40
2022-12-05T05:27:51.831Z,3.30
2022-12-05T05:30:19.817Z,3.50
2022-12-05T05:32:47.862Z,3.13
2022-12-05T05:35:16.103Z,3.13
2022-12-05T05:37:44.505Z,3.10
2022-12-05T05:40:14.615Z,3.20
2022-12-05T05:42:45.559Z,2.93
2022-12-05T05:45:14.054Z,2.70
2022-12-05T05:47:42.060Z,2.70
2022-12-05T05:50:10.320Z,2.70
2022-12-05T05:52:38.570Z,2.30
2022-12-05T05:55:08.698Z,2.47
2022-12-05T05:57:37.931Z,2.50
2022-12-05T06:00:07.229Z,2.47
2022-12-05T06:02:35.279Z,2.90
2022-12-05T06:05:03.338Z,2.03
2022-12-05T06:07:31.198Z,1.93
2022-12-05T06:09:59.131Z,2.33
2022-12-05T06:12:27.066Z,2.17
2022-12-05T06:14:56.066Z,2.50
2022-12-05T06:17:23.720Z,2.40
2022-12-05T06:19:51.414Z,2.20
2022-12-05T06:22:19.139Z,2.73
2022-12-05T06:24:47.149Z,3.00
2022-12-05T06:27:14.852Z,2.30
2022-12-05T06:29:42.567Z,2.20
2022-12-05T06:32:11.591Z,2.00
2022-12-05T06:34:39.411Z,2.43
2022-12-05T06:37:07.105Z,2.50
2022-12-05T06:39:34.903Z,2.57
2022-12-05T06:42:02.553Z,2.20
2022-12-05T06:44:32.614Z,2.17
2022-12-05T06:47:00.321Z,2.10
2022-12-05T06:49:36.375Z,2.30
2022-12-05T06:52:05.556Z,2.53
2022-12-05T06:54:33.295Z,2.40
2022-12-05T06:57:00.968Z,2.30
2022-12-05T06:59:28.629Z,1.97
2022-12-05T07:01:55.375Z,2.67
2022-12-05T07:04:24.580Z,2.53
2022-12-05T07:06:55.549Z,2.10
2022-12-05T07:09:45.569Z,1.93
2022-12-05T07:12:14.139Z,2.30
2022-12-05T07:14:50.029Z,2.00
2022-12-05T07:17:18.260Z,1.77
2022-12-05T07:19:45.990Z,2.10
2022-12-05T07:22:16.145Z,2.00
2022-12-05T07:24:44.168Z,2.00
2022-12-05T07:27:12.098Z,2.20
2022-12-05T07:29:39.952Z,2.27
2022-12-05T07:32:07.854Z,2.30
2022-12-05T07:34:35.703Z,2.13
2022-12-05T07:37:03.390Z,2.57
2022-12-05T07:39:32.463Z,2.30
2022-12-05T07:42:00.135Z,2.10
2022-12-05T07:44:27.823Z,2.40
2022-12-05T07:49:35.199Z,2.50
2022-12-05T07:52:03.162Z,2.27
2022-12-05T07:54:32.249Z,2.27
2022-12-05T07:56:59.936Z,2.60
2022-12-05T07:59:27.598Z,2.67
2022-12-05T08:01:55.372Z,2.63
2022-12-05T08:04:23.082Z,2.40
2022-12-05T08:06:50.751Z,2.53
2022-12-05T08:09:18.455Z,2.30
2022-12-05T08:11:52.332Z,2.43
2022-12-05T08:14:20.846Z,2.80
2022-12-05T08:16:48.611Z,2.83
2022-12-05T08:19:17.154Z,3.00
2022-12-05T08:21:45.031Z,2.50
2022-12-05T08:24:13.073Z,2.70
2022-12-05T08:26:41.232Z,3.10
2022-12-05T08:29:11.825Z,3.17
2022-12-05T08:31:42.136Z,3.43
2022-12-05T08:34:12.675Z,2.80
2022-12-05T08:36:40.305Z,3.13
2022-12-05T08:39:09.662Z,3.23
2022-12-05T08:41:37.373Z,3.53
2022-12-05T08:44:06.447Z,3.60
2022-12-05T08:46:37.387Z,3.73
2022-12-05T08:49:06.157Z,3.90
2022-12-05T08:51:33.989Z,3.97
2022-12-05T08:54:03.651Z,3.80
2022-12-05T08:56:32.947Z,3.80
2022-12-05T08:59:05.645Z,3.50
2022-12-05T09:01:38.553Z,3.40
2022-12-05T09:04:07.239Z,3.40
2022-12-05T09:06:35.802Z,3.57
2022-12-05T09:09:07.440Z,3.93
2022-12-05T09:11:36.756Z,4.03
2022-12-05T09:14:05.525Z,3.93
2022-12-05T09:16:38.611Z,3.80
2022-12-05T09:19:07.093Z,3.77
2022-12-05T09:21:34.942Z,3.80
2022-12-05T09:24:02.598Z,3.90
2022-12-05T09:26:30.977Z,3.50
2022-12-05T09:28:59.097Z,3.93
2022-12-05T09:31:28.123Z,4.03
2022-12-05T09:33:57.418Z,3.70
2022-12-05T09:36:26.683Z,3.90
2022-12-05T09:38:55.388Z,4.03
2022-12-05T09:41:54.263Z,3.80
2022-12-05T09:44:25.955Z,4.33
2022-12-05T09:49:52.081Z,4.27
2022-12-05T09:52:25.283Z,3.70
2022-12-05T09:54:53.510Z,4.10
2022-12-05T09:57:33.337Z,4.10
2022-12-05T10:00:02.196Z,3.87
2022-12-05T10:02:34.974Z,3.90
2022-12-05T10:05:07.972Z,4.20
2022-12-05T10:07:40.378Z,3.97
2022-12-05T10:10:27.877Z,4.20
2022-12-05T10:13:08.796Z,4.03
2022-12-05T10:15:40.365Z,3.80
2022-12-05T10:18:15.916Z,3.57
2022-12-05T10:20:53.241Z,3.43
2022-12-05T10:23:49.357Z,3.67
2022-12-05T10:26:13.994Z,3.47
2022-12-05T10:28:47.987Z,4.00
2022-12-05T10:31:18.727Z,3.30
2022-12-05T10:33:49.709Z,3.30
2022-12-05T10:36:18.748Z,3.33
2022-12-05T10:38:46.924Z,2.90
2022-12-05T10:41:15.404Z,3.10
2022-12-05T10:43:44.605Z,2.77
2022-12-05T10:46:16.951Z,3.27
2022-12-05T10:48:45.299Z,3.30
2022-12-05T10:51:15.527Z,3.27
2022-12-05T10:53:46.316Z,2.80
2022-12-05T10:56:39.696Z,3.40
2022-12-05T10:59:08.683Z,3.63
2022-12-05T11:01:38.783Z,3.90
2022-12-05T11:04:14.065Z,3.10
2022-12-05T11:06:51.361Z,3.30
2022-12-05T11:09:22.097Z,3.30
2022-12-05T11:12:05.212Z,3.47
2022-12-05T11:14:36.141Z,2.97
2022-12-05T11:17:05.799Z,2.90
2022-12-05T11:19:34.765Z,3.27
2022-12-05T11:22:02.866Z,3.30
2022-12-05T11:24:34.166Z,3.13
2022-12-05T11:27:20.803Z,3.10
2022-12-05T11:29:56.065Z,3.20
2022-12-05T11:32:25.585Z,3.10
2022-12-05T11:34:57.323Z,3.50
2022-12-05T11:37:27.579Z,3.57
2022-12-05T11:39:58.719Z,3.50
2022-12-05T11:42:33.590Z,3.50
2022-12-05T11:45:29.206Z,3.53
2022-12-05T11:48:18.502Z,4.10
2022-12-05T11:50:52.156Z,4.03
2022-12-05T11:53:43.622Z,3.93
2022-12-05T11:56:19.016Z,3.63
2022-12-05T11:58:56.871Z,3.70
2022-12-05T12:01:32.616Z,4.20
2022-12-05T12:04:19.037Z,3.83
2022-12-05T12:06:54.919Z,3.97
2022-12-05T12:09:34.723Z,4.50
2022-12-05T12:12:08.843Z,4.00
2022-12-05T12:14:47.322Z,4.30
2022-12-05T12:17:22.231Z,5.57
2022-12-05T12:20:05.474Z,5.70
2022-12-05T12:22:45.004Z,6.63
2022-12-05T12:25:26.182Z,7.13
2022-12-05T12:28:05.345Z,6.97
2022-12-05T12:30:41.999Z,8.00
2022-12-05T12:33:14.127Z,7.80
2022-12-05T12:35:45.870Z,7.13
2022-12-05T12:38:25.902Z,7.10
2022-12-05T12:40:55.292Z,7.67
2022-12-05T12:43:53.747Z,8.10
2022-12-05T12:46:31.597Z,7.03
2022-12-05T12:49:18.440Z,7.00
2022-12-05T12:51:51.759Z,6.80
2022-12-05T12:57:29.333Z,5.97
2022-12-05T13:00:05.403Z,6.40
2022-12-05T13:02:38.939Z,6.53
2022-12-05T13:05:10.073Z,6.07
2022-12-05T13:07:40.412Z,7.03
2022-12-05T13:10:14.861Z,6.47
2022-12-05T13:12:43.696Z,6.70
2022-12-05T13:15:15.563Z,6.93
2022-12-05T13:17:45.179Z,6.87
2022-12-05T13:20:16.333Z,7.60
2022-12-05T13:22:44.756Z,7.77
2022-12-05T13:25:15.833Z,8.10
2022-12-05T13:27:55.130Z,7.90
2022-12-05T13:30:28.066Z,7.80
2022-12-05T13:32:57.227Z,8.87
2022-12-05T13:35:48.316Z,8.30
2022-12-05T13:38:39.541Z,7.80
2022-12-05T13:41:24.849Z,7.90
2022-12-05T13:44:05.825Z,7.87
2022-12-05T13:46:37.175Z,7.27
2022-12-05T13:49:11.677Z,8.40
2022-12-05T13:51:44.839Z,8.00
2022-12-05T13:54:16.709Z,7.60
2022-12-05T13:56:50.302Z,7.73
2022-12-05T14:00:10.145Z,7.63
2022-12-05T14:03:05.114Z,7.03
2022-12-05T14:05:49.685Z,7.53
2022-12-05T14:08:55.978Z,7.30
2022-12-05T14:11:23.917Z,6.70
2022-12-05T14:13:51.916Z,6.80
2022-12-05T14:16:50.444Z,7.53
2022-12-05T14:19:44.513Z,7.27
2022-12-05T14:22:26.999Z,7.47
2022-12-05T14:24:58.797Z,7.67
2022-12-05T14:27:44.536Z,8.00
2022-12-05T14:30:24.210Z,8.13
2022-12-05T14:32:52.280Z,7.17
2022-12-05T14:35:30.790Z,7.60
2022-12-05T14:38:00.521Z,7.77
2022-12-05T14:40:32.327Z,7.50
2022-12-05T14:43:01.977Z,7.93
2022-12-05T14:45:33.244Z,7.73
2022-12-05T14:48:02.044Z,7.03
2022-12-05T14:50:45.338Z,7.80
2022-12-05T14:53:32.229Z,7.43
2022-12-05T14:56:07.760Z,7.00
2022-12-05T14:58:38.290Z,6.97
2022-12-05T15:01:08.994Z,7.40
2022-12-05T15:03:39.477Z,7.23
2022-12-05T15:06:15.568Z,6.93
2022-12-05T15:08:47.434Z,7.70
2022-12-05T15:11:28.337Z,6.97
2022-12-05T15:13:59.394Z,7.90
2022-12-05T15:16:29.667Z,7.60
2022-12-05T15:19:01.308Z,6.97
2022-12-05T15:21:34.964Z,6.83
2022-12-05T15:24:04.319Z,6.50
2022-12-05T15:26:46.854Z,6.63
2022-12-05T15:29:19.054Z,7.30
2022-12-05T15:31:48.627Z,8.20
2022-12-05T15:34:20.036Z,8.33
2022-12-05T15:36:52.151Z,8.53
2022-12-05T15:39:25.759Z,8.67
2022-12-05T15:41:54.244Z,8.80
2022-12-05T15:44:27.590Z,8.73
2022-12-05T15:46:57.046Z,8.20
2022-12-05T15:49:26.554Z,8.70
2022-12-05T15:51:58.756Z,8.70
2022-12-05T15:54:29.996Z,9.13
2022-12-05T15:57:01.552Z,10.03
2022-12-05T15:59:34.316Z,10.57
2022-12-05T16:02:05.729Z,10.90
2022-12-05T16:04:37.709Z,10.73
2022-12-05T16:07:08.159Z,11.10
2022-12-05T16:09:40.355Z,10.47
2022-12-05T16:12:18.293Z,11.40
2022-12-05T16:15:02.014Z,11.67
2022-12-05T16:17:31.415Z,11.63
2022-12-05T16:20:12.226Z,12.00
2022-12-05T16:22:46.280Z,11.67
2022-12-05T16:25:15.730Z,11.93
2022-12-05T16:27:44.029Z,12.43
2022-12-05T16:30:20.091Z,12.63
2022-12-05T16:32:50.063Z,12.73
2022-12-05T16:35:36.731Z,13.37
2022-12-05T16:38:14.870Z,13.77
2022-12-05T16:40:51.498Z,13.53
2022-12-05T16:43:24.382Z,13.90
2022-12-05T16:45:54.171Z,14.63
2022-12-05T16:48:24.668Z,16.63
2022-12-05T16:50:53.533Z,15.87
2022-12-05T16:53:32.470Z,16.60
2022-12-05T16:56:00.925Z,18.10
2022-12-05T16:58:31.601Z,17.73
2022-12-05T17:01:03.814Z,16.13
2022-12-05T17:03:35.732Z,15.47
2022-12-05T17:06:04.186Z,16.10
2022-12-05T17:08:33.192Z,16.43
2022-12-05T17:11:02.009Z,17.63
2022-12-05T17:13:29.902Z,16.53
2022-12-05T17:15:57.645Z,16.37
2022-12-05T17:18:30.999Z,14.80
2022-12-05T17:21:01.488Z,14.40
2022-12-05T17:23:29.129Z,13.60
2022-12-05T17:25:59.242Z,12.00
2022-12-05T17:28:26.994Z,9.40
2022-12-05T17:30:55.859Z,8.23
2022-12-05T17:33:24.168Z,6.97
2022-12-05T17:35:52.179Z,5.10
2022-12-05T17:38:19.863Z,3.50
2022-12-05T17:40:47.910Z,2.77
2022-12-05T17:43:23.094Z,2.43
2022-12-05T17:45:54.057Z,2.50
2022-12-05T17:48:28.366Z,2.20
2022-12-05T17:50:57.647Z,2.57
2022-12-05T17:53:25.775Z,2.20
2022-12-05T17:55:53.579Z,2.50
2022-12-05T17:58:22.645Z,2.47
2022-12-05T18:00:50.472Z,2.63
2022-12-05T18:03:19.122Z,3.10
2022-12-05T18:05:47.350Z,2.97
2022-12-05T18:08:16.927Z,3.70
2022-12-05T18:10:45.922Z,6.10
2022-12-05T18:13:13.960Z,9.13
2022-12-05T18:15:43.551Z,12.67
2022-12-05T18:18:15.428Z,14.40
2022-12-05T18:20:43.347Z,14.70
2022-12-05T18:23:11.206Z,15.90
2022-12-05T18:25:39.130Z,16.40
2022-12-05T18:28:06.901Z,17.53
2022-12-05T18:30:34.858Z,17.40
2022-12-05T18:33:03.949Z,18.80
2022-12-05T18:35:43.869Z,17.53
2022-12-05T18:38:12.151Z,16.77
2022-12-05T18:40:39.871Z,17.70
2022-12-05T18:43:07.689Z,17.73
2022-12-05T18:45:35.434Z,17.93
2022-12-05T18:48:23.383Z,18.83
2022-12-05T18:50:54.879Z,18.43
2022-12-05T18:53:22.782Z,20.03
2022-12-05T18:56:20.053Z,20.90
2022-12-05T18:58:38.906Z,19.97
2022-12-05T19:01:08.365Z,21.63
2022-12-05T19:03:38.119Z,20.87
2022-12-05T19:06:13.281Z,21.07
2022-12-05T19:08:41.120Z,19.93
2022-12-05T19:11:08.950Z,19.93
2022-12-05T19:13:37.225Z,19.80
2022-12-05T19:16:05.413Z,20.60
2022-12-05T19:18:33.094Z,20.60
2022-12-05T19:21:02.175Z,19.73
2022-12-05T19:23:30.116Z,20.90
2022-12-05T19:26:00.876Z,20.67
2022-12-05T19:28:31.386Z,20.50
2022-12-05T19:31:02.890Z,21.20
2022-12-05T19:33:34.273Z,21.40
2022-12-05T19:36:10.031Z,21.30
2022-12-05T19:38:38.339Z,22.93
2022-12-05T19:41:06.856Z,23.23
2022-12-05T19:43:35.250Z,23.83
2022-12-05T19:46:04.509Z,23.87
2022-12-05T19:48:37.655Z,23.30
2022-12-05T19:51:07.271Z,20.63
2022-12-05T19:53:37.094Z,20.80
2022-12-05T19:56:07.200Z,19.47
2022-12-05T19:58:35.561Z,18.33
2022-12-05T20:01:10.448Z,17.70
2022-12-05T20:03:38.516Z,18.47
2022-12-05T20:06:09.066Z,19.30
2022-12-05T20:08:37.427Z,19.97
2022-12-05T20:11:07.490Z,19.73
2022-12-05T20:13:46.500Z,18.10
2022-12-05T20:16:16.772Z,18.57
2022-12-05T20:18:44.561Z,17.63
2022-12-05T20:21:15.027Z,18.00
2022-12-05T20:23:43.023Z,17.67
2022-12-05T20:26:12.985Z,17.93
2022-12-05T20:28:41.013Z,17.87
2022-12-05T20:31:10.223Z,16.97
2022-12-05T20:33:38.487Z,18.57
2022-12-05T20:36:08.729Z,18.67
2022-12-05T20:38:37.784Z,17.53
2022-12-05T20:41:07.738Z,18.23
2022-12-05T20:43:35.977Z,17.97
2022-12-05T20:46:08.460Z,17.33
2022-12-05T20:51:09.294Z,17.57
2022-12-05T20:53:40.899Z,18.07
2022-12-05T20:56:10.355Z,16.53
2022-12-05T20:58:38.543Z,18.60
2022-12-05T21:01:08.950Z,18.43
2022-12-05T21:03:37.812Z,18.53
2022-12-05T21:06:08.679Z,19.23
2022-12-05T21:08:37.891Z,19.20
2022-12-05T21:11:05.892Z,19.37
2022-12-05T21:13:33.831Z,20.43
2022-12-05T21:16:03.567Z,18.60
2022-12-05T21:18:31.737Z,19.10
2022-12-05T21:21:00.461Z,19.07
2022-12-05T21:23:28.347Z,19.57
2022-12-05T21:26:02.433Z,19.37
2022-12-05T21:28:30.233Z,19.73
2022-12-05T21:31:05.578Z,21.13
2022-12-05T21:33:33.318Z,20.83
2022-12-05T21:36:01.168Z,21.33
2022-12-05T21:38:28.795Z,21.63
2022-12-05T21:40:57.885Z,21.10
2022-12-05T21:43:25.555Z,21.90
2022-12-05T21:45:53.881Z,22.57
2022-12-05T21:48:22.051Z,21.43
2022-12-05T21:50:50.064Z,21.20
2022-12-05T21:53:18.108Z,22.17
2022-12-05T21:55:45.937Z,23.13
2022-12-05T21:58:15.477Z,21.70
2022-12-05T22:00:43.787Z,20.57
2022-12-05T22:03:15.003Z,21.83
2022-12-05T22:05:42.702Z,21.97
2022-12-05T22:08:10.441Z,22.03
2022-12-05T22:10:38.710Z,21.87
2022-12-05T22:13:06.371Z,21.67
2022-12-05T22:15:35.499Z,21.77
2022-12-05T22:18:03.268Z,22.87
2022-12-05T22:20:30.994Z,22.10
2022-12-05T22:22:58.718Z,22.57
2022-12-05T22:25:26.471Z,22.47
2022-12-05T22:27:55.353Z,21.90
2022-12-05T22:30:24.884Z,21.97
2022-12-05T22:32:55.607Z,21.90
2022-12-05T22:35:23.345Z,22.37
2022-12-05T22:37:51.058Z,21.37
2022-12-05T22:40:18.985Z,20.67
2022-12-05T22:42:46.628Z,22.50
2022-12-05T22:45:14.421Z,21.33
2022-12-05T22:47:42.110Z,21.07
2022-12-05T22:50:12.059Z,20.07
2022-12-05T22:52:39.699Z,20.63
2022-12-05T22:55:08.163Z,19.97
2022-12-05T22:57:35.842Z,19.30
2022-12-05T23:00:04.711Z,19.90
2022-12-05T23:02:32.491Z,20.33
2022-12-05T23:05:00.250Z,19.47
2022-12-05T23:07:29.398Z,20.10
2022-12-05T23:09:57.585Z,20.23
2022-12-05T23:12:25.580Z,19.00
2022-12-05T23:14:53.311Z,21.20
2022-12-05T23:17:21.085Z,21.97
2022-12-05T23:19:48.858Z,21.40
2022-12-05T23:22:16.586Z,21.33
2022-12-05T23:24:45.691Z,20.87
2022-12-05T23:27:13.497Z,21.27
2022-12-05T23:29:42.504Z,21.37
2022-12-05T23:32:10.244Z,22.70
2022-12-05T23:34:38.034Z,22.80
2022-12-05T23:37:05.926Z,23.67
2022-12-05T23:39:33.666Z,23.57
2022-12-05T23:42:02.860Z,23.93
2022-12-05T23:44:30.636Z,22.80
2022-12-05T23:46:58.476Z,22.53
2022-12-05T23:49:26.301Z,22.53
2022-12-05T23:51:54.470Z,22.80
2022-12-05T23:54:22.281Z,22.57
2022-12-05T23:56:49.994Z,22.23
2022-12-05T23:59:19.135Z,23.53
